Time;durP1;ratioP1;P1;durP2;ratioP2;P2;SDS_P1;SDS_P2;PMS_P1;PMS_P2;Temp;Humidity;BMP_temperature;BMP_pressure;BME280_temperature;BME280_humidity;BME280_pressure;Samples;Min_cycle;Max_cycle;Signal;HPM_P1;HPM_P2
2022/09/23 00:00:48;;;;;;;7.55;5.40;;;13.50;90.30;;;;;;5015543;28;20378;-82
2022/09/23 00:03:19;;;;;;;7.90;5.55;;;13.50;90.30;;;;;;5013755;28;20500;-82
2022/09/23 00:05:56;;;;;;;;;;;13.40;90.70;;;;;;5015688;28;20032;-83
2022/09/23 00:08:23;;;;;;;5.80;5.03;;;13.40;90.40;;;;;;5014961;28;19997;-82
2022/09/23 00:10:49;;;;;;;6.78;5.25;;;13.30;90.50;;;;;;5014833;28;20037;-83
2022/09/23 00:13:15;;;;;;;6.35;4.97;;;13.40;90.50;;;;;;4998512;28;20127;-83
2022/09/23 00:15:41;;;;;;;5.65;4.93;;;13.30;90.50;;;;;;5013293;28;20032;-82
2022/09/23 00:18:08;;;;;;;7.68;5.22;;;13.30;90.40;;;;;;5013991;28;20022;-82
2022/09/23 00:20:40;;;;;;;6.72;5.20;;;13.30;90.40;;;;;;4998580;28;20026;-82
2022/09/23 00:23:07;;;;;;;7.13;5.20;;;13.30;90.50;;;;;;5014442;28;20497;-83
2022/09/23 00:25:33;;;;;;;7.50;5.35;;;13.30;90.50;;;;;;5014843;28;20032;-83
2022/09/23 00:27:59;;;;;;;6.82;5.55;;;13.20;90.50;;;;;;4998539;28;20117;-82
2022/09/23 00:30:25;;;;;;;7.35;6.25;;;13.20;90.50;;;;;;5013626;28;20485;-82
2022/09/23 00:32:51;;;;;;;7.50;5.45;;;13.20;90.60;;;;;;5015341;28;20068;-81
2022/09/23 00:35:19;;;;;;;7.55;5.53;;;13.20;90.60;;;;;;5015696;28;20022;-81
2022/09/23 00:37:44;;;;;;;7.68;5.60;;;13.20;90.70;;;;;;5014810;28;20084;-82
2022/09/23 00:40:12;;;;;;;7.57;5.35;;;13.10;90.60;;;;;;4998578;28;20442;-82
2022/09/23 00:42:45;;;;;;;7.72;5.88;;;13.10;90.70;;;;;;5012632;28;20045;-83
2022/09/23 00:45:11;;;;;;;6.68;5.97;;;13.10;90.70;;;;;;5014880;28;20447;-81
2022/09/23 00:47:54;;;;;;;7.95;4.95;;;13.10;90.60;;;;;;4997835;28;20025;-82
2022/09/23 00:50:53;;;;;;;7.18;5.72;;;13.10;90.60;;;;;;5014223;28;20037;-82
2022/09/23 00:53:22;;;;;;;6.63;5.68;;;13.10;90.60;;;;;;5013284;28;20035;-82
2022/09/23 00:55:53;;;;;;;6.75;5.72;;;13.10;90.70;;;;;;5042482;28;20060;-82
2022/09/23 00:58:24;;;;;;;7.85;5.55;;;13.10;90.70;;;;;;5041637;28;20055;-83
2022/09/23 01:00:50;;;;;;;8.70;5.93;;;13.00;90.70;;;;;;5038551;28;20083;-82
2022/09/23 01:03:17;;;;;;;6.40;5.25;;;13.00;90.70;;;;;;5041818;28;20037;-83
2022/09/23 01:05:43;;;;;;;8.10;5.82;;;13.00;90.70;;;;;;5043838;28;20035;-82
2022/09/23 01:08:13;;;;;;;7.45;5.50;;;13.10;90.80;;;;;;5044059;28;20033;-86
2022/09/23 01:11:10;;;;;;;7.55;5.82;;;13.00;90.80;;;;;;5044937;28;20025;-82
2022/09/23 01:14:28;;;;;;;6.25;5.40;;;13.10;90.80;;;;;;5039547;28;20025;-83
2022/09/23 01:17:02;;;;;;;7.53;5.20;;;13.00;90.80;;;;;;4997586;28;20064;-83
2022/09/23 01:19:59;;;;;;;7.25;5.32;;;12.90;90.80;;;;;;5054318;28;20021;-82
2022/09/23 01:22:25;;;;;;;7.60;5.45;;;12.90;90.80;;;;;;5037566;28;20025;-82
2022/09/23 01:25:21;;;;;;;7.40;5.95;;;12.90;90.80;;;;;;5037841;28;20055;-82
2022/09/23 01:28:30;;;;;;;6.13;5.53;;;12.90;90.80;;;;;;5055626;28;20025;-83
2022/09/23 01:31:08;;;;;;;6.63;5.40;;;12.90;90.80;;;;;;4937909;29;20038;-83
2022/09/23 01:34:02;;;;;;;8.13;5.82;;;12.90;90.70;;;;;;5025385;28;20054;-83
2022/09/23 01:36:34;;;;;;;6.18;5.18;;;12.90;90.80;;;;;;5035874;28;20037;-83
2022/09/23 01:39:04;;;;;;;8.32;5.80;;;12.80;90.80;;;;;;5037277;28;20029;-82
2022/09/23 01:41:49;;;;;;;7.20;5.82;;;12.80;90.80;;;;;;5036790;28;20033;-81
2022/09/23 01:44:45;;;;;;;7.07;5.40;;;12.80;90.90;;;;;;5036687;28;20151;-83
2022/09/23 01:47:21;;;;;;;6.18;5.50;;;12.80;90.90;;;;;;5037238;28;20503;-84
2022/09/23 01:49:52;;;;;;;8.00;5.35;;;12.80;90.90;;;;;;5037636;28;20025;-82
2022/09/23 01:52:27;;;;;;;7.35;5.95;;;12.70;90.90;;;;;;5054873;28;20056;-83
2022/09/23 01:55:22;;;;;;;7.22;5.68;;;12.70;90.90;;;;;;5037056;28;20045;-83
2022/09/23 01:57:57;;;;;;;7.60;5.32;;;12.70;90.90;;;;;;5016734;28;20033;-84
2022/09/23 02:00:25;;;;;;;7.63;5.72;;;12.70;90.90;;;;;;5019975;28;20389;-89
2022/09/23 02:02:58;;;;;;;7.80;5.20;;;12.70;90.90;;;;;;5020384;28;20025;-89
2022/09/23 02:05:36;;;;;;;6.85;5.00;;;12.60;90.80;;;;;;5037452;28;20080;-88
2022/09/23 02:08:24;;;;;;;7.30;5.63;;;12.60;90.80;;;;;;5020706;28;20063;-89
2022/09/23 02:10:59;;;;;;;8.05;5.78;;;12.60;90.80;;;;;;5020339;28;20457;-90
2022/09/23 02:13:44;;;;;;;9.05;6.05;;;12.50;90.70;;;;;;5021220;28;20021;-89
2022/09/23 02:16:30;;;;;;;7.95;5.82;;;12.50;90.80;;;;;;5037272;28;20032;-89
2022/09/23 02:19:16;;;;;;;6.55;5.53;;;12.50;90.90;;;;;;5020330;28;20422;-89
2022/09/23 02:21:57;;;;;;;8.02;6.05;;;12.40;90.80;;;;;;5020561;28;20037;-89
2022/09/23 02:24:26;;;;;;;;;;;12.40;90.90;;;;;;5020666;28;20079;-87
2022/09/23 02:27:02;;;;;;;6.53;5.53;;;12.30;90.90;;;;;;5020276;28;19991;-88
2022/09/23 02:29:54;;;;;;;6.65;5.30;;;12.30;90.90;;;;;;5020877;28;20029;-90
2022/09/23 02:32:48;;;;;;;6.63;5.32;;;12.30;90.90;;;;;;5024381;28;20030;-88
2022/09/23 02:35:28;;;;;;;6.85;5.60;;;12.30;90.90;;;;;;5025254;28;20013;-86
2022/09/23 02:38:07;;;;;;;7.30;5.78;;;12.30;90.90;;;;;;5042098;28;20029;-88
2022/09/23 02:40:52;;;;;;;6.80;5.60;;;12.30;90.90;;;;;;5054140;28;20012;-86
2022/09/23 02:43:26;;;;;;;6.13;5.50;;;12.30;91.00;;;;;;5061185;28;20029;-87
2022/09/23 02:45:53;;;;;;;8.70;6.28;;;12.30;91.00;;;;;;5060837;28;20022;-88
2022/09/23 02:48:26;;;;;;;6.68;5.45;;;12.30;91.10;;;;;;5042805;28;20025;-87
2022/09/23 02:50:53;;;;;;;5.82;4.85;;;12.30;91.10;;;;;;5031983;28;20055;-88
2022/09/23 02:53:23;;;;;;;6.35;5.50;;;12.40;91.00;;;;;;5024854;28;20033;-87
2022/09/23 02:55:49;;;;;;;6.28;5.38;;;12.40;91.10;;;;;;5024151;28;20053;-89
2022/09/23 02:58:16;;;;;;;9.05;5.88;;;12.30;91.10;;;;;;5041760;28;20045;-89
2022/09/23 03:00:54;;;;;;;6.53;5.40;;;12.40;91.20;;;;;;5024833;28;20029;-90
2022/09/23 03:03:48;;;;;;;6.07;5.15;;;12.40;91.10;;;;;;5041188;28;20029;-87
2022/09/23 03:06:39;;;;;;;6.72;5.65;;;12.50;91.20;;;;;;5023523;28;20048;-89
2022/09/23 03:09:17;;;;;;;6.72;5.80;;;12.40;91.20;;;;;;5023722;28;20060;-87
2022/09/23 03:11:49;;;;;;;7.95;6.30;;;12.40;91.10;;;;;;5041273;28;20026;-88
2022/09/23 03:14:52;;;;;;;7.18;5.55;;;12.40;91.10;;;;;;5040100;28;20041;-89
2022/09/23 03:17:51;;;;;;;7.70;5.75;;;12.40;91.10;;;;;;5023026;28;20072;-88
2022/09/23 03:21:01;;;;;;;6.88;5.60;;;12.40;91.10;;;;;;5039721;28;20030;-88
2022/09/23 03:23:34;;;;;;;6.05;5.45;;;12.40;91.20;;;;;;5040181;28;20026;-89
2022/09/23 03:26:05;;;;;;;6.90;5.18;;;12.50;91.20;;;;;;5040725;28;20025;-87
2022/09/23 03:28:35;;;;;;;8.00;5.97;;;12.40;91.30;;;;;;5040153;28;20032;-89
2022/09/23 03:31:02;;;;;;;6.65;5.55;;;12.50;91.30;;;;;;5023760;28;20034;-86
2022/09/23 03:33:32;;;;;;;6.35;5.65;;;12.40;91.20;;;;;;5040634;28;20021;-87
2022/09/23 03:38:58;;;;;;;8.43;5.72;;;12.50;91.20;;;;;;5041177;28;20148;-89
2022/09/23 03:41:31;;;;;;;5.85;5.18;;;12.40;91.20;;;;;;5039933;28;20037;-88
2022/09/23 03:43:58;;;;;;;6.50;5.60;;;12.50;91.20;;;;;;5040525;28;20021;-89
2022/09/23 03:46:26;;;;;;;6.53;5.50;;;12.40;91.20;;;;;;5040176;28;20076;-88
2022/09/23 03:48:55;;;;;;;7.78;5.65;;;12.40;91.30;;;;;;5022335;28;20028;-87
2022/09/23 03:51:25;;;;;;;8.43;5.90;;;12.30;91.30;;;;;;5027212;28;20057;-88
2022/09/23 03:53:50;;;;;;;7.25;5.25;;;12.30;91.30;;;;;;5049086;28;20068;-87
2022/09/23 03:56:19;;;;;;;6.18;5.57;;;12.30;91.30;;;;;;5016945;28;20046;-89
2022/09/23 03:58:45;;;;;;;6.20;5.55;;;12.30;91.40;;;;;;5000497;28;20023;-89
2022/09/23 04:01:13;;;;;;;7.63;5.90;;;12.30;91.40;;;;;;4999826;28;20041;-88
2022/09/23 04:03:40;;;;;;;6.22;5.20;;;12.20;91.40;;;;;;5016021;28;20077;-89
2022/09/23 04:06:06;;;;;;;7.25;5.45;;;12.20;91.40;;;;;;5000448;28;20027;-89
2022/09/23 04:08:31;;;;;;;10.02;5.70;;;12.20;91.30;;;;;;4999520;28;20065;-90
2022/09/23 04:11:01;;;;;;;8.38;6.00;;;12.20;91.30;;;;;;5000081;28;20546;-89
2022/09/23 04:13:30;;;;;;;8.32;5.82;;;12.20;91.30;;;;;;5016687;28;20117;-89
2022/09/23 04:15:56;;;;;;;7.47;5.68;;;12.20;91.30;;;;;;5000050;28;20097;-87
2022/09/23 04:18:22;;;;;;;6.68;5.28;;;12.20;91.30;;;;;;5008435;28;20035;-87
2022/09/23 04:20:48;;;;;;;5.82;4.95;;;12.10;91.30;;;;;;5019730;28;20010;-88
2022/09/23 04:23:14;;;;;;;7.47;5.68;;;12.10;91.30;;;;;;5019413;28;20026;-88
2022/09/23 04:25:45;;;;;;;6.72;5.65;;;12.10;91.30;;;;;;5019716;28;20066;-88
2022/09/23 04:28:11;;;;;;;7.90;5.40;;;12.10;91.30;;;;;;5014824;28;20033;-88
2022/09/23 04:30:43;;;;;;;6.22;5.25;;;12.10;91.40;;;;;;5000762;28;20027;-88
2022/09/23 04:33:12;;;;;;;6.63;5.18;;;12.10;91.40;;;;;;5015734;28;20030;-89
2022/09/23 04:35:39;;;;;;;6.32;5.00;;;12.10;91.60;;;;;;5015683;28;20034;-87
2022/09/23 04:38:11;;;;;;;9.55;5.45;;;12.10;91.40;;;;;;5000709;28;20117;-88
2022/09/23 04:40:37;;;;;;;7.07;5.22;;;12.10;91.60;;;;;;5032195;28;20033;-89
2022/09/23 04:43:02;;;;;;;7.25;6.10;;;12.00;91.40;;;;;;4998349;28;20121;-89
2022/09/23 04:45:29;;;;;;;8.82;5.28;;;12.00;91.50;;;;;;5015713;28;20119;-88
2022/09/23 04:47:57;;;;;;;6.75;5.65;;;12.00;91.50;;;;;;4998835;28;20022;-91
2022/09/23 04:50:24;;;;;;;7.65;5.20;;;12.10;91.50;;;;;;5016429;28;20459;-90
2022/09/23 04:52:51;;;;;;;6.32;5.35;;;12.00;91.50;;;;;;4998491;28;20483;-89
2022/09/23 04:55:17;;;;;;;7.75;5.70;;;12.00;91.50;;;;;;4999141;28;20050;-88
2022/09/23 04:57:43;;;;;;;7.53;5.47;;;12.00;91.50;;;;;;4999824;28;20034;-89
2022/09/23 05:00:11;;;;;;;7.25;5.10;;;12.00;91.50;;;;;;4998852;28;20027;-89
2022/09/23 05:02:45;;;;;;;7.10;4.78;;;12.00;91.50;;;;;;5014885;28;20035;-90
2022/09/23 05:05:11;;;;;;;5.93;4.85;;;12.00;91.50;;;;;;5000221;28;20029;-87
2022/09/23 05:07:38;;;;;;;6.72;5.43;;;12.00;91.50;;;;;;5014948;28;20501;-88
2022/09/23 05:10:07;;;;;;;5.93;4.68;;;12.10;91.60;;;;;;4998704;28;20422;-89
2022/09/23 05:12:33;;;;;;;6.68;5.32;;;12.10;91.90;;;;;;4999076;28;20030;-89
2022/09/23 05:14:58;;;;;;;6.93;5.20;;;12.10;91.60;;;;;;4999424;28;20033;-87
2022/09/23 05:17:24;;;;;;;5.90;4.53;;;12.10;91.60;;;;;;5014571;28;20030;-89
2022/09/23 05:19:51;;;;;;;6.55;4.95;;;12.10;91.60;;;;;;4999694;28;20033;-89
2022/09/23 05:22:17;;;;;;;6.72;5.00;;;12.10;91.60;;;;;;4999440;28;20036;-91
2022/09/23 05:24:42;;;;;;;8.10;5.40;;;12.10;91.50;;;;;;4998584;28;20022;-88
2022/09/23 05:27:08;;;;;;;6.20;5.13;;;12.10;91.60;;;;;;5013808;28;20030;-88
2022/09/23 05:29:38;;;;;;;6.97;5.03;;;12.10;91.70;;;;;;4998042;28;20058;-89
2022/09/23 05:32:03;;;;;;;5.95;5.10;;;12.10;91.70;;;;;;4999476;28;20026;-87
2022/09/23 05:34:31;;;;;;;7.55;4.70;;;12.10;91.80;;;;;;4996848;28;20030;-88
2022/09/23 05:36:58;;;;;;;6.38;4.70;;;12.10;91.80;;;;;;4999209;28;20291;-89
2022/09/23 05:39:24;;;;;;;6.88;4.85;;;12.20;91.90;;;;;;4996713;28;20096;-87
2022/09/23 05:41:49;;;;;;;6.55;5.53;;;12.20;91.80;;;;;;5013995;28;20050;-87
2022/09/23 05:44:15;;;;;;;5.72;4.88;;;12.10;91.80;;;;;;4996767;28;20540;-87
2022/09/23 05:46:41;;;;;;;6.00;4.78;;;12.20;91.90;;;;;;4996979;28;20034;-86
2022/09/23 05:49:08;;;;;;;5.95;5.25;;;12.20;91.90;;;;;;4998831;28;20098;-87
2022/09/23 05:51:37;;;;;;;7.82;4.90;;;12.20;91.90;;;;;;4997380;28;20030;-88
2022/09/23 05:54:04;;;;;;;5.60;4.38;;;12.20;91.90;;;;;;4998456;28;20033;-88
2022/09/23 05:56:31;;;;;;;6.55;5.40;;;12.20;91.90;;;;;;5039832;28;20054;-85
2022/09/23 05:58:58;;;;;;;6.35;5.13;;;12.20;91.90;;;;;;5018540;28;20030;-87
2022/09/23 06:01:26;;;;;;;5.93;5.00;;;12.30;91.90;;;;;;5018215;28;20014;-86
2022/09/23 06:03:54;;;;;;;6.50;5.00;;;12.30;91.90;;;;;;5017981;28;20034;-85
2022/09/23 06:06:29;;;;;;;5.38;4.75;;;12.30;91.90;;;;;;5003610;28;20042;-86
2022/09/23 06:08:59;;;;;;;6.35;4.68;;;12.30;92.00;;;;;;4997099;28;20042;-88
2022/09/23 06:11:28;;;;;;;5.65;4.80;;;12.30;92.00;;;;;;4997359;28;20273;-85
2022/09/23 06:13:59;;;;;;;6.10;4.43;;;12.40;92.00;;;;;;4996717;28;20492;-86
2022/09/23 06:16:29;;;;;;;5.53;4.20;;;12.40;92.10;;;;;;5012903;28;20065;-88
2022/09/23 06:18:54;;;;;;;5.05;4.40;;;12.40;92.10;;;;;;4996632;28;20036;-86
2022/09/23 06:21:20;;;;;;;5.45;4.43;;;12.40;92.10;;;;;;5013518;28;20410;-86
2022/09/23 06:23:46;;;;;;;4.82;4.38;;;12.50;92.10;;;;;;4997294;28;20053;-87
2022/09/23 06:26:15;;;;;;;5.07;4.10;;;12.50;92.10;;;;;;5013259;28;20033;-89
2022/09/23 06:28:43;;;;;;;8.77;5.03;;;12.50;92.10;;;;;;4997901;28;20382;-87
2022/09/23 06:31:14;;;;;;;6.70;4.18;;;12.60;92.10;;;;;;4998025;28;20035;-85
2022/09/23 06:33:44;;;;;;;6.35;4.25;;;12.60;92.00;;;;;;4997976;28;20371;-87
2022/09/23 06:36:11;;;;;;;6.60;4.40;;;12.60;92.00;;;;;;4998416;28;20034;-85
2022/09/23 06:38:44;;;;;;;4.45;3.88;;;12.70;92.10;;;;;;4997889;28;20027;-87
2022/09/23 06:41:11;;;;;;;5.35;4.07;;;12.70;92.00;;;;;;4997335;28;20018;-87
2022/09/23 06:43:36;;;;;;;5.47;4.22;;;12.80;92.20;;;;;;4996715;28;20454;-86
2022/09/23 06:46:07;;;;;;;10.00;4.85;;;12.80;91.90;;;;;;4996344;28;20061;-87
2022/09/23 06:48:35;;;;;;;6.65;5.05;;;12.80;91.80;;;;;;4996064;28;20034;-86
2022/09/23 06:51:03;;;;;;;6.10;4.55;;;12.90;91.80;;;;;;5011215;28;20039;-87
2022/09/23 06:53:33;;;;;;;6.45;4.75;;;12.90;91.80;;;;;;4998266;28;20030;-85
2022/09/23 06:56:10;;;;;;;6.20;4.38;;;12.90;91.80;;;;;;5014330;28;20414;-86
2022/09/23 06:58:37;;;;;;;7.00;4.43;;;13.00;91.80;;;;;;4996936;28;20019;-85
2022/09/23 07:01:03;;;;;;;5.80;4.22;;;13.00;91.80;;;;;;5012081;28;20043;-86
2022/09/23 07:03:30;;;;;;;6.35;5.07;;;13.10;91.80;;;;;;4996127;28;20041;-87
2022/09/23 07:05:57;;;;;;;6.10;4.55;;;13.10;91.90;;;;;;4997543;28;20030;-87
2022/09/23 07:08:26;;;;;;;7.18;4.32;;;13.20;91.80;;;;;;4996209;28;20026;-87
2022/09/23 07:10:56;;;;;;;6.80;4.65;;;13.20;91.80;;;;;;4995814;28;20030;-86
2022/09/23 07:13:23;;;;;;;6.85;4.70;;;13.20;91.80;;;;;;5012149;28;20117;-88
2022/09/23 07:15:57;;;;;;;5.38;4.13;;;13.30;91.80;;;;;;5012322;28;20046;-85
2022/09/23 07:18:24;;;;;;;6.28;4.75;;;13.30;91.80;;;;;;4999914;28;20037;-86
2022/09/23 07:20:50;;;;;;;9.52;4.72;;;13.30;91.70;;;;;;5000085;28;20023;-86
2022/09/23 07:23:16;;;;;;;6.60;4.38;;;13.30;91.70;;;;;;5016335;28;20038;-87
2022/09/23 07:25:43;;;;;;;8.27;4.70;;;13.40;91.70;;;;;;4999587;28;20088;-86
2022/09/23 07:28:09;;;;;;;6.47;4.22;;;13.30;91.60;;;;;;5000773;28;20486;-86
2022/09/23 07:30:37;;;;;;;8.48;4.85;;;13.40;91.70;;;;;;5016492;28;20065;-88
2022/09/23 07:33:03;;;;;;;6.90;4.93;;;13.40;91.70;;;;;;4999839;28;20033;-87
2022/09/23 07:35:29;;;;;;;8.35;4.53;;;13.40;91.70;;;;;;5012799;28;20015;-86
2022/09/23 07:37:55;;;;;;;6.22;4.70;;;13.50;91.70;;;;;;5037085;28;20034;-85
2022/09/23 07:40:20;;;;;;;6.00;4.32;;;13.50;91.60;;;;;;5020553;28;20007;-87
2022/09/23 07:42:46;;;;;;;6.68;4.53;;;13.50;91.60;;;;;;5037165;28;20039;-87
2022/09/23 07:45:12;;;;;;;5.85;4.47;;;13.60;91.60;;;;;;5016837;28;20069;-87
2022/09/23 07:47:38;;;;;;;7.18;4.40;;;13.60;91.60;;;;;;5016225;28;20056;-87
2022/09/23 07:50:10;;;;;;;5.93;4.40;;;13.60;91.50;;;;;;5015683;28;20023;-88
2022/09/23 07:52:36;;;;;;;6.32;4.28;;;13.60;91.50;;;;;;5001542;28;20088;-87
2022/09/23 07:55:03;;;;;;;9.07;5.82;;;13.60;91.50;;;;;;5005822;28;20091;-87
2022/09/23 07:57:29;;;;;;;9.48;5.65;;;13.70;91.60;;;;;;5038961;28;20029;-86
2022/09/23 07:59:56;;;;;;;6.15;4.82;;;13.70;91.60;;;;;;5021053;28;20045;-86
2022/09/23 08:02:21;;;;;;;5.75;4.97;;;13.70;91.60;;;;;;5021799;28;20049;-85
2022/09/23 08:04:48;;;;;;;5.43;4.43;;;13.80;91.50;;;;;;5021721;28;20091;-88
2022/09/23 08:07:13;;;;;;;7.43;4.40;;;13.90;91.50;;;;;;5021669;28;20053;-87
2022/09/23 08:09:41;;;;;;;5.47;3.88;;;13.90;91.50;;;;;;5020331;28;20362;-86
2022/09/23 08:12:09;;;;;;;6.75;4.65;;;14.00;91.50;;;;;;5024342;28;20033;-85
2022/09/23 08:14:40;;;;;;;6.18;4.50;;;14.00;91.50;;;;;;5021649;28;20452;-85
2022/09/23 08:17:06;;;;;;;5.28;3.97;;;14.10;91.60;;;;;;5021679;28;20036;-86
2022/09/23 08:19:32;;;;;;;5.00;3.75;;;14.20;91.60;;;;;;5022190;28;20099;-89
2022/09/23 08:21:58;;;;;;;6.03;4.55;;;14.20;91.50;;;;;;5021516;28;20038;-88
2022/09/23 08:24:25;;;;;;;5.35;4.18;;;14.30;91.50;;;;;;5039347;28;20030;-86
2022/09/23 08:26:53;;;;;;;5.68;3.83;;;14.30;91.50;;;;;;5038804;28;20071;-85
2022/09/23 08:29:24;;;;;;;4.70;3.75;;;14.40;91.50;;;;;;5037679;28;20041;-86
2022/09/23 08:31:50;;;;;;;5.10;3.80;;;14.40;91.40;;;;;;5038515;28;20040;-88
2022/09/23 08:34:18;;;;;;;5.68;4.53;;;14.50;91.40;;;;;;5038733;28;20040;-88
2022/09/23 08:36:44;;;;;;;5.25;4.05;;;14.50;91.30;;;;;;5020741;28;20031;-87
2022/09/23 08:39:16;;;;;;;7.32;3.97;;;14.60;91.60;;;;;;5020828;28;20477;-87
2022/09/23 08:41:49;;;;;;;4.28;3.83;;;14.70;91.30;;;;;;5021212;28;20060;-86
2022/09/23 08:44:40;;;;;;;4.68;3.97;;;14.70;91.30;;;;;;5037311;28;20025;-86
2022/09/23 08:47:05;;;;;;;9.88;4.53;;;14.80;91.30;;;;;;5039541;28;20105;-87
2022/09/23 08:49:38;;;;;;;5.63;4.20;;;14.90;91.30;;;;;;5037434;28;20061;-86
2022/09/23 08:52:13;;;;;;;6.85;4.63;;;14.90;91.30;;;;;;5038077;28;20037;-87
2022/09/23 08:54:39;;;;;;;5.18;4.43;;;15.00;91.20;;;;;;5038636;28;20052;-88
2022/09/23 08:57:09;;;;;;;6.60;4.05;;;15.00;91.10;;;;;;5020902;28;20050;-87
2022/09/23 08:59:43;;;;;;;5.75;3.95;;;15.10;91.10;;;;;;5020711;28;20060;-85
2022/09/23 09:02:21;;;;;;;7.20;4.32;;;15.10;91.20;;;;;;5037749;28;20030;-87
2022/09/23 09:04:57;;;;;;;6.15;4.30;;;15.20;91.20;;;;;;5021438;28;20432;-88
2022/09/23 09:07:33;;;;;;;5.53;4.40;;;15.30;91.20;;;;;;5036488;28;20488;-86
2022/09/23 09:10:14;;;;;;;7.65;4.35;;;15.40;91.20;;;;;;5038630;28;20029;-86
2022/09/23 09:12:44;;;;;;;6.40;4.55;;;15.40;91.20;;;;;;5021659;28;20029;-87
2022/09/23 09:15:28;;;;;;;5.75;4.40;;;15.40;91.20;;;;;;5021070;28;20057;-87
2022/09/23 09:18:11;;;;;;;5.72;4.30;;;15.50;91.20;;;;;;5043277;28;20029;-87
2022/09/23 09:21:07;;;;;;;5.43;3.90;;;15.60;91.20;;;;;;5058827;28;20010;-85
2022/09/23 09:23:51;;;;;;;5.35;4.10;;;15.70;91.10;;;;;;5053386;28;20039;-86
2022/09/23 09:26:32;;;;;;;4.93;3.88;;;15.70;91.00;;;;;;5058057;28;20013;-85
2022/09/23 09:29:19;;;;;;;6.80;4.43;;;15.80;90.90;;;;;;5033616;28;20480;-86
2022/09/23 09:31:49;;;;;;;8.02;5.00;;;15.90;90.90;;;;;;5021164;28;20113;-87
2022/09/23 09:34:53;;;;;;;6.13;4.50;;;16.00;90.80;;;;;;5039384;28;20044;-85
2022/09/23 09:37:45;;;;;;;8.05;5.07;;;16.10;90.80;;;;;;5037378;28;20041;-86
2022/09/23 09:40:12;;;;;;;5.72;4.70;;;16.20;90.80;;;;;;5036861;28;20466;-86
2022/09/23 09:42:40;;;;;;;4.93;4.25;;;16.20;90.70;;;;;;5020469;28;20437;-86
2022/09/23 09:45:25;;;;;;;5.97;4.20;;;16.20;90.70;;;;;;5036287;28;20035;-87
2022/09/23 09:48:04;;;;;;;5.43;4.13;;;16.30;90.50;;;;;;5036678;28;20036;-85
2022/09/23 09:50:48;;;;;;;6.95;4.00;;;16.30;90.40;;;;;;5037883;28;20466;-85
2022/09/23 09:53:34;;;;;;;5.03;4.18;;;16.40;90.40;;;;;;5037607;28;20021;-87
2022/09/23 09:56:07;;;;;;;4.60;3.95;;;16.50;90.40;;;;;;5037455;28;20045;-87
2022/09/23 09:58:57;;;;;;;5.03;3.60;;;16.50;90.60;;;;;;5037109;28;20030;-88
2022/09/23 10:01:25;;;;;;;5.65;4.32;;;16.60;90.30;;;;;;5037604;28;20017;-86
2022/09/23 10:03:57;;;;;;;6.35;3.92;;;16.70;90.30;;;;;;5037342;28;20029;-87
2022/09/23 10:06:26;;;;;;;6.07;4.45;;;16.70;90.20;;;;;;5037150;28;20034;-87
2022/09/23 10:09:07;;;;;;;4.20;3.80;;;16.70;90.20;;;;;;5037348;28;20087;-84
2022/09/23 10:11:33;;;;;;;4.50;3.60;;;16.80;90.10;;;;;;5036369;28;20035;-85
2022/09/23 10:14:01;;;;;;;5.75;4.07;;;16.90;90.10;;;;;;5038002;28;20037;-86
2022/09/23 10:16:33;;;;;;;5.15;4.13;;;16.90;90.00;;;;;;5036382;28;20120;-86
2022/09/23 10:19:01;;;;;;;5.82;3.90;;;16.90;89.50;;;;;;5038071;28;20486;-86
2022/09/23 10:21:41;;;;;;;5.47;4.13;;;16.90;89.60;;;;;;5037005;28;20117;-85
2022/09/23 10:24:10;;;;;;;5.78;4.30;;;17.00;89.70;;;;;;5036041;28;20469;-87
2022/09/23 10:26:43;;;;;;;4.55;3.67;;;17.00;89.70;;;;;;5037642;28;20028;-87
2022/09/23 10:29:23;;;;;;;6.72;4.05;;;17.10;89.60;;;;;;5036788;28;20030;-88
2022/09/23 10:31:52;;;;;;;5.32;3.80;;;17.10;89.60;;;;;;5037288;28;20029;-86
2022/09/23 10:34:27;;;;;;;7.65;3.70;;;17.10;89.60;;;;;;5019797;28;20065;-86
2022/09/23 10:37:17;;;;;;;4.80;3.72;;;17.10;89.50;;;;;;5034239;28;20160;-87
2022/09/23 10:48:57;;;;;;;4.88;3.60;;;17.40;89.00;;;;;;5037448;28;20044;-85
2022/09/23 10:51:55;;;;;;;4.38;3.50;;;17.40;88.80;;;;;;5037403;28;20052;-87
2022/09/23 10:55:01;;;;;;;4.82;3.55;;;17.40;88.60;;;;;;5021648;28;20033;-86
2022/09/23 10:57:43;;;;;;;3.78;3.08;;;17.50;88.80;;;;;;5040771;28;20044;-88
2022/09/23 11:00:22;;;;;;;5.90;3.63;;;17.50;88.80;;;;;;5039260;28;20136;-87
2022/09/23 11:03:26;;;;;;;5.55;3.20;;;17.60;88.50;;;;;;5040529;28;20029;-87
2022/09/23 11:05:55;;;;;;;3.88;3.22;;;17.60;88.50;;;;;;5049398;28;20017;-86
2022/09/23 11:08:41;;;;;;;4.65;3.78;;;17.60;88.40;;;;;;5060611;28;20018;-87
2022/09/23 11:11:24;;;;;;;4.57;3.65;;;17.70;88.50;;;;;;5044327;28;20017;-87
2022/09/23 11:14:15;;;;;;;8.20;4.03;;;17.70;87.90;;;;;;5060749;28;20013;-86
2022/09/23 11:17:14;;;;;;;6.13;3.60;;;17.70;87.90;;;;;;5060429;28;20100;-87
2022/09/23 11:19:49;;;;;;;4.75;3.70;;;17.80;88.10;;;;;;5042292;28;20021;-87
2022/09/23 11:22:39;;;;;;;5.55;3.60;;;17.80;87.90;;;;;;5040942;28;20033;-86
2022/09/23 11:25:23;;;;;;;5.68;4.20;;;17.80;87.80;;;;;;5039808;28;20393;-88
2022/09/23 11:28:01;;;;;;;4.00;3.25;;;17.80;87.70;;;;;;5039858;28;20430;-86
2022/09/23 11:30:52;;;;;;;4.80;3.30;;;17.90;87.70;;;;;;5039655;28;20503;-86
2022/09/23 11:33:51;;;;;;;5.38;3.90;;;18.00;87.70;;;;;;5022823;28;20044;-86
2022/09/23 11:36:26;;;;;;;5.13;3.38;;;18.00;87.70;;;;;;5020832;28;20477;-87
2022/09/23 11:38:55;;;;;;;3.95;3.15;;;18.00;87.70;;;;;;5040531;28;20199;-87
2022/09/23 11:41:30;;;;;;;3.72;3.35;;;18.00;87.70;;;;;;5022767;28;20076;-85
2022/09/23 11:44:07;;;;;;;3.80;3.17;;;18.10;88.20;;;;;;5022473;28;20148;-87
2022/09/23 11:46:45;;;;;;;4.60;3.30;;;18.10;87.30;;;;;;5040883;28;20523;-86
2022/09/23 11:49:46;;;;;;;4.28;3.13;;;18.20;87.20;;;;;;5040376;28;20056;-87
2022/09/23 11:52:11;;;;;;;4.72;3.83;;;18.20;87.10;;;;;;5040084;28;20477;-88
2022/09/23 11:55:16;;;;;;;5.18;4.35;;;18.20;87.20;;;;;;5038682;28;20036;-86
2022/09/23 11:57:50;;;;;;;5.40;4.50;;;18.30;87.10;;;;;;5038990;28;20052;-87
2022/09/23 12:00:33;;;;;;;4.90;3.58;;;18.30;86.70;;;;;;5022615;28;20555;-86
2022/09/23 12:03:23;;;;;;;5.40;3.63;;;18.30;86.50;;;;;;5038593;28;20033;-87
2022/09/23 12:06:06;;;;;;;5.57;3.95;;;18.40;86.70;;;;;;5040410;28;20029;-87
2022/09/23 12:08:36;;;;;;;6.28;4.72;;;18.40;86.90;;;;;;5039460;28;20022;-88
2022/09/23 12:11:26;;;;;;;7.55;4.95;;;18.40;87.00;;;;;;5021830;28;20033;-87
2022/09/23 12:14:11;;;;;;;8.45;4.53;;;18.40;86.90;;;;;;5039823;28;20470;-86
2022/09/23 12:17:21;;;;;;;6.57;4.82;;;18.40;86.90;;;;;;5038353;28;20064;-87
2022/09/23 12:20:00;;;;;;;8.40;4.82;;;18.40;86.70;;;;;;5039812;28;20026;-88
2022/09/23 12:22:35;;;;;;;9.82;5.30;;;18.40;86.70;;;;;;5038466;28;20029;-86
2022/09/23 12:25:23;;;;;;;8.70;5.45;;;18.50;86.60;;;;;;5039156;28;20087;-87
2022/09/23 12:27:51;;;;;;;7.20;5.35;;;18.50;86.40;;;;;;5039325;28;20032;-86
2022/09/23 12:30:23;;;;;;;7.30;4.60;;;18.50;86.20;;;;;;5038583;28;20112;-86
2022/09/23 12:32:49;;;;;;;6.50;4.97;;;18.50;86.00;;;;;;5040749;28;20028;-86
2022/09/23 12:35:24;;;;;;;7.03;5.03;;;18.60;86.20;;;;;;5024337;28;20033;-87
2022/09/23 12:37:52;;;;;;;7.43;4.85;;;18.60;86.20;;;;;;5041753;28;20044;-85
2022/09/23 12:40:43;;;;;;;10.18;5.35;;;18.60;86.10;;;;;;5039157;28;20033;-86
2022/09/23 12:43:30;;;;;;;7.15;4.70;;;18.60;86.00;;;;;;5038494;28;20484;-86
2022/09/23 12:46:26;;;;;;;5.50;4.25;;;18.70;86.00;;;;;;5021193;28;20025;-87
2022/09/23 12:49:28;;;;;;;7.50;3.80;;;18.70;85.90;;;;;;5039094;28;20126;-87
2022/09/23 12:52:30;;;;;;;7.13;3.88;;;18.80;85.90;;;;;;5039563;28;20033;-86
2022/09/23 12:55:22;;;;;;;7.30;4.15;;;18.80;85.60;;;;;;5039904;28;20121;-86
2022/09/23 12:57:48;;;;;;;6.72;3.92;;;18.80;85.10;;;;;;5023347;28;20060;-88
2022/09/23 13:00:21;;;;;;;9.75;4.15;;;18.80;85.20;;;;;;5058643;28;20018;-87
2022/09/23 13:06:37;;;;;;;6.43;4.10;;;18.90;85.10;;;;;;5057872;28;20045;-86
2022/09/23 13:08:28;;;;;;;6.88;5.25;;;18.90;85.10;;;;;;5059087;28;20023;-86
2022/09/23 13:11:00;;;;;;;8.30;4.82;;;18.90;85.00;;;;;;5047468;28;20105;-88
2022/09/23 13:13:42;;;;;;;8.00;5.18;;;18.90;84.90;;;;;;5022207;28;20149;-87
2022/09/23 13:16:25;;;;;;;8.15;4.88;;;18.90;84.70;;;;;;5035555;28;20048;-87
2022/09/23 13:18:56;;;;;;;6.25;4.35;;;19.00;84.30;;;;;;5038225;28;20064;-86
2022/09/23 13:21:59;;;;;;;6.63;4.82;;;19.00;84.20;;;;;;5039633;28;20041;-88
2022/09/23 13:24:27;;;;;;;6.07;4.28;;;19.10;84.30;;;;;;5037673;28;20029;-86
2022/09/23 13:26:54;;;;;;;5.78;4.00;;;19.10;84.30;;;;;;5038811;28;20036;-85
2022/09/23 13:29:23;;;;;;;5.45;4.03;;;19.10;84.00;;;;;;5039729;28;20064;-87
2022/09/23 13:31:49;;;;;;;4.75;3.70;;;19.10;83.90;;;;;;5039165;28;20366;-90
2022/09/23 13:34:19;;;;;;;4.75;3.03;;;19.20;83.90;;;;;;5021322;28;20048;-88
2022/09/23 13:36:47;;;;;;;5.03;3.30;;;19.10;83.90;;;;;;5038498;28;20021;-88
2022/09/23 13:39:15;;;;;;;5.35;3.70;;;19.20;84.00;;;;;;5038559;28;20032;-87